Time;durP1;ratioP1;P1;durP2;ratioP2;P2;SDS_P1;SDS_P2;PMS_P1;PMS_P2;Temp;Humidity;BMP_temperature;BMP_pressure;BME280_temperature;BME280_humidity;BME280_pressure;Samples;Min_cycle;Max_cycle;Signal;HPM_P1;HPM_P2
2023/09/06 00:01:56;;;;;;;8.18;5.95;;;18.20;99.90;;;;;;5099743;28;20046;-89
2023/09/06 00:04:25;;;;;;;7.82;5.72;;;18.20;99.90;;;;;;5083652;28;20036;-89
2023/09/06 00:06:52;;;;;;;8.68;5.78;;;18.10;99.90;;;;;;5099695;28;20075;-88
2023/09/06 00:09:19;;;;;;;11.25;6.15;;;18.10;99.90;;;;;;5079732;28;20497;-89
2023/09/06 00:11:46;;;;;;;8.05;6.00;;;18.10;99.90;;;;;;5096471;28;20044;-89
2023/09/06 00:14:13;;;;;;;8.85;6.15;;;18.10;99.90;;;;;;5079031;28;20401;-89
2023/09/06 00:16:39;;;;;;;8.63;6.22;;;18.10;99.90;;;;;;5096475;28;20048;-89
2023/09/06 00:19:06;;;;;;;10.50;6.22;;;18.10;99.90;;;;;;5112490;28;20036;-89
2023/09/06 00:21:36;;;;;;;14.25;7.15;;;18.00;99.90;;;;;;5079517;28;20036;-89
2023/09/06 00:24:03;;;;;;;7.75;6.13;;;18.00;99.90;;;;;;5096750;28;20079;-89
2023/09/06 00:26:30;;;;;;;8.93;5.93;;;18.00;99.90;;;;;;5095689;28;20488;-89
2023/09/06 00:28:57;;;;;;;8.60;5.88;;;18.00;99.90;;;;;;5112422;28;20124;-89
2023/09/06 00:31:24;;;;;;;11.38;6.55;;;17.90;99.90;;;;;;5095969;28;20050;-89
2023/09/06 00:33:51;;;;;;;12.23;6.43;;;17.90;99.90;;;;;;5079293;28;20040;-90
2023/09/06 00:36:17;;;;;;;7.90;6.28;;;17.90;99.90;;;;;;5095543;28;20519;-89
2023/09/06 00:38:44;;;;;;;9.45;6.22;;;17.90;99.90;;;;;;5079381;28;20047;-89
2023/09/06 00:41:11;;;;;;;9.07;6.22;;;17.80;99.90;;;;;;5079129;28;20036;-89
2023/09/06 00:43:37;;;;;;;10.35;6.30;;;17.80;99.90;;;;;;5095697;28;20040;-89
2023/09/06 00:46:07;;;;;;;9.82;6.28;;;17.80;99.90;;;;;;5095022;28;20480;-89
2023/09/06 00:48:34;;;;;;;12.77;6.50;;;17.80;99.90;;;;;;5111924;28;20561;-89
2023/09/06 00:51:03;;;;;;;10.38;6.90;;;17.80;99.90;;;;;;5128427;28;20036;-89
2023/09/06 00:53:31;;;;;;;9.48;6.40;;;17.70;99.90;;;;;;5096019;28;20032;-90
2023/09/06 00:55:59;;;;;;;9.90;6.40;;;17.70;99.90;;;;;;5079003;28;20097;-89
2023/09/06 00:58:29;;;;;;;10.40;6.60;;;17.70;99.90;;;;;;5111935;28;20075;-89
2023/09/06 01:00:57;;;;;;;11.30;7.05;;;17.70;99.90;;;;;;5095886;28;20044;-89
2023/09/06 01:03:24;;;;;;;9.30;6.88;;;17.70;99.90;;;;;;5095578;28;20044;-89
2023/09/06 01:06:06;;;;;;;12.15;7.13;;;17.70;99.90;;;;;;5095510;28;20502;-89
2023/09/06 01:08:46;;;;;;;10.13;7.53;;;17.70;99.90;;;;;;5114363;28;20420;-88
2023/09/06 01:11:21;;;;;;;13.45;7.30;;;17.70;99.90;;;;;;5115145;28;20038;-89
2023/09/06 01:13:55;;;;;;;10.77;7.32;;;17.70;99.90;;;;;;5094957;28;20542;-89
2023/09/06 01:16:30;;;;;;;9.77;6.82;;;17.60;99.90;;;;;;5094891;28;20048;-89
2023/09/06 01:18:57;;;;;;;12.30;7.03;;;17.70;99.90;;;;;;5095752;28;20044;-89
2023/09/06 01:21:42;;;;;;;9.82;6.95;;;17.60;99.90;;;;;;5078179;28;20123;-89
2023/09/06 01:24:10;;;;;;;8.90;6.07;;;17.60;99.90;;;;;;5111333;28;20075;-89
2023/09/06 01:26:37;;;;;;;8.73;6.60;;;17.60;99.90;;;;;;5078294;28;20036;-89
2023/09/06 01:29:04;;;;;;;11.85;6.65;;;17.50;99.90;;;;;;5077639;28;20395;-88
2023/09/06 01:31:31;;;;;;;10.95;7.35;;;17.50;99.90;;;;;;5098373;28;20038;-89
2023/09/06 01:33:58;;;;;;;11.02;7.25;;;17.50;99.90;;;;;;5081861;28;20043;-89
2023/09/06 01:36:25;;;;;;;12.02;6.80;;;17.50;99.90;;;;;;5131132;28;20047;-89
2023/09/06 01:38:51;;;;;;;9.15;6.65;;;17.50;99.90;;;;;;5098471;28;20149;-89
2023/09/06 01:41:18;;;;;;;8.88;6.68;;;17.40;99.90;;;;;;5081356;28;20112;-89
2023/09/06 01:43:45;;;;;;;9.70;6.55;;;17.40;99.90;;;;;;5097898;28;20035;-89
2023/09/06 01:46:12;;;;;;;9.85;6.38;;;17.40;99.90;;;;;;5080812;28;20046;-88
2023/09/06 01:48:39;;;;;;;9.20;7.22;;;17.40;99.90;;;;;;5098036;28;20035;-89
2023/09/06 01:51:08;;;;;;;10.50;6.60;;;17.40;99.90;;;;;;5097665;28;20036;-88
2023/09/06 01:53:35;;;;;;;9.07;6.68;;;17.30;99.90;;;;;;5098553;28;20085;-89
2023/09/06 01:56:02;;;;;;;9.95;6.40;;;17.40;99.90;;;;;;5081273;28;20047;-90
2023/09/06 01:58:32;;;;;;;9.43;6.57;;;17.30;99.90;;;;;;5097671;28;20043;-89
2023/09/06 02:01:04;;;;;;;9.52;6.78;;;17.30;99.90;;;;;;5082225;28;20047;-89
2023/09/06 02:03:33;;;;;;;10.00;7.10;;;17.30;99.90;;;;;;5114190;28;20073;-88
2023/09/06 02:06:04;;;;;;;10.30;6.38;;;17.30;99.90;;;;;;5114577;28;20190;-89
2023/09/06 02:08:32;;;;;;;9.93;6.38;;;17.20;99.90;;;;;;5081365;28;20035;-89
2023/09/06 02:10:58;;;;;;;9.40;6.63;;;17.20;99.90;;;;;;5097886;28;20067;-89
2023/09/06 02:13:25;;;;;;;10.27;6.40;;;17.20;99.90;;;;;;5097255;28;20082;-90
2023/09/06 02:15:52;;;;;;;9.45;6.95;;;17.20;99.90;;;;;;5081412;28;20035;-90
2023/09/06 02:18:18;;;;;;;8.30;6.70;;;17.20;99.90;;;;;;5097397;28;20151;-89
2023/09/06 02:20:46;;;;;;;10.40;6.80;;;17.10;99.90;;;;;;5081120;28;20043;-89
2023/09/06 02:23:13;;;;;;;9.95;6.53;;;17.10;99.90;;;;;;5081142;28;20539;-89
2023/09/06 02:25:40;;;;;;;8.93;6.40;;;17.10;99.90;;;;;;5114266;28;20130;-89
2023/09/06 02:28:07;;;;;;;9.80;6.38;;;17.10;99.90;;;;;;5097382;28;20047;-90
2023/09/06 02:30:38;;;;;;;11.95;6.38;;;17.10;99.90;;;;;;5081237;28;20476;-90
2023/09/06 02:33:05;;;;;;;8.77;6.35;;;17.00;99.90;;;;;;5097742;28;20540;-90
2023/09/06 02:35:35;;;;;;;12.20;6.43;;;17.00;99.90;;;;;;5113516;28;20380;-90
2023/09/06 02:38:02;;;;;;;7.85;5.95;;;17.00;99.90;;;;;;5081962;28;20044;-90
2023/09/06 02:40:28;;;;;;;8.20;5.60;;;16.90;99.90;;;;;;5114182;28;20032;-89
2023/09/06 02:42:55;;;;;;;9.15;6.60;;;16.90;99.90;;;;;;5097626;28;20035;-90
2023/09/06 02:45:22;;;;;;;8.35;5.95;;;16.90;99.90;;;;;;5097379;28;20078;-90
2023/09/06 02:47:50;;;;;;;7.90;6.05;;;16.90;99.90;;;;;;5080965;28;20048;-89
2023/09/06 02:50:23;;;;;;;7.32;5.70;;;16.80;99.90;;;;;;5113688;28;20040;-89
2023/09/06 02:52:52;;;;;;;9.77;7.10;;;16.80;99.90;;;;;;5114851;28;20046;-90
2023/09/06 02:55:19;;;;;;;8.70;5.93;;;16.80;99.90;;;;;;5096998;28;20078;-90
2023/09/06 02:57:46;;;;;;;8.07;5.97;;;16.80;99.90;;;;;;5097615;28;20078;-90
2023/09/06 03:00:47;;;;;;;8.27;6.00;;;16.70;99.90;;;;;;5080726;28;20071;-90
2023/09/06 03:03:06;;;;;;;9.68;6.82;;;16.70;99.90;;;;;;5114780;28;20051;-90
2023/09/06 03:05:43;;;;;;;9.05;6.20;;;16.70;99.90;;;;;;5096671;28;20035;-90
2023/09/06 03:08:12;;;;;;;8.02;5.93;;;16.70;99.90;;;;;;5098111;28;20057;-89
2023/09/06 03:10:45;;;;;;;8.93;6.03;;;16.60;99.90;;;;;;5112902;28;20048;-89
2023/09/06 03:13:15;;;;;;;10.82;6.43;;;16.60;99.90;;;;;;5130367;28;20036;-89
2023/09/06 03:15:43;;;;;;;8.25;6.15;;;16.60;99.90;;;;;;5113907;28;20043;-90
2023/09/06 03:18:10;;;;;;;12.95;6.93;;;16.60;99.90;;;;;;5081182;28;20035;-90
2023/09/06 03:20:42;;;;;;;8.75;6.60;;;16.50;99.90;;;;;;5115851;28;20036;-90
2023/09/06 03:23:17;;;;;;;8.40;6.10;;;16.50;99.90;;;;;;5117384;28;20047;-90
2023/09/06 03:25:48;;;;;;;9.50;6.40;;;16.50;99.90;;;;;;5101067;28;20039;-90
2023/09/06 03:28:20;;;;;;;10.65;6.45;;;16.50;99.90;;;;;;5117509;28;20061;-90
2023/09/06 03:30:48;;;;;;;10.35;7.18;;;16.50;99.90;;;;;;5117551;28;20039;-90
2023/09/06 03:33:15;;;;;;;9.55;6.55;;;16.40;99.90;;;;;;5117510;28;20096;-90
2023/09/06 03:35:45;;;;;;;10.52;6.80;;;16.40;99.90;;;;;;5100018;28;20040;-90
2023/09/06 03:38:15;;;;;;;12.18;6.82;;;16.40;99.90;;;;;;5084695;28;20617;-90
2023/09/06 03:40:42;;;;;;;8.68;6.45;;;16.40;99.90;;;;;;5084570;28;20046;-90
2023/09/06 03:43:17;;;;;;;10.27;7.07;;;16.40;99.90;;;;;;5100899;28;20043;-90
2023/09/06 03:45:51;;;;;;;12.88;7.18;;;16.30;99.90;;;;;;5085760;28;20396;-89
2023/09/06 03:48:20;;;;;;;11.02;6.50;;;16.40;99.90;;;;;;5117104;28;20046;-89
2023/09/06 03:50:51;;;;;;;10.35;7.25;;;16.30;99.90;;;;;;5100418;28;20039;-89
2023/09/06 03:53:18;;;;;;;10.00;7.05;;;16.30;99.90;;;;;;5116615;28;20404;-89
2023/09/06 03:55:46;;;;;;;11.00;7.30;;;16.30;99.90;;;;;;5082959;28;20088;-89
2023/09/06 03:58:13;;;;;;;8.18;6.30;;;16.20;99.90;;;;;;5133754;28;20047;-90
2023/09/06 04:00:42;;;;;;;9.00;6.43;;;16.30;99.90;;;;;;5100116;28;20043;-90
2023/09/06 04:03:10;;;;;;;8.30;6.47;;;16.20;99.90;;;;;;5084296;28;20039;-89
2023/09/06 04:05:37;;;;;;;9.60;6.32;;;16.20;99.90;;;;;;5115916;28;20078;-90
2023/09/06 04:08:03;;;;;;;10.40;6.57;;;16.20;99.90;;;;;;5099915;28;20074;-89
2023/09/06 04:10:44;;;;;;;9.73;6.53;;;16.20;99.90;;;;;;5079166;28;20060;-89
2023/09/06 04:13:12;;;;;;;9.10;6.75;;;16.20;99.90;;;;;;5098308;28;20036;-90
2023/09/06 04:15:42;;;;;;;10.43;6.90;;;16.20;99.90;;;;;;5095949;28;20173;-90
2023/09/06 04:18:10;;;;;;;11.30;7.00;;;16.10;99.90;;;;;;5096915;28;20399;-89
2023/09/06 04:20:39;;;;;;;8.75;6.13;;;16.10;99.90;;;;;;5095793;28;20036;-90
2023/09/06 04:23:07;;;;;;;9.32;6.65;;;16.10;99.90;;;;;;5112850;28;20074;-89
2023/09/06 04:25:41;;;;;;;9.68;6.63;;;16.10;99.90;;;;;;5095911;28;20077;-90
2023/09/06 04:28:09;;;;;;;10.05;6.38;;;16.10;99.90;;;;;;5097381;28;20048;-89
2023/09/06 04:30:37;;;;;;;10.75;6.35;;;16.10;99.90;;;;;;5129188;28;20039;-89
2023/09/06 04:33:10;;;;;;;8.30;6.20;;;16.10;99.90;;;;;;5095453;28;20040;-90
2023/09/06 04:35:48;;;;;;;9.80;6.60;;;16.10;99.90;;;;;;5112032;28;20404;-89
2023/09/06 04:38:17;;;;;;;7.80;5.65;;;16.10;99.90;;;;;;5112284;28;20036;-89
2023/09/06 04:40:44;;;;;;;8.20;6.20;;;16.10;99.90;;;;;;5095260;28;20514;-90
2023/09/06 04:43:12;;;;;;;11.90;6.05;;;16.10;99.90;;;;;;5095940;28;20388;-89
2023/09/06 04:45:39;;;;;;;9.55;6.75;;;16.10;99.90;;;;;;5128740;28;20098;-89
2023/09/06 04:48:10;;;;;;;8.85;5.80;;;16.10;99.90;;;;;;5111942;28;20040;-89
2023/09/06 04:50:38;;;;;;;9.45;6.13;;;16.00;99.90;;;;;;5095444;28;20039;-90
2023/09/06 04:53:05;;;;;;;9.00;5.88;;;16.10;99.90;;;;;;5112287;28;20078;-90
2023/09/06 04:55:35;;;;;;;10.63;6.28;;;16.00;99.90;;;;;;5095219;28;20050;-90
2023/09/06 04:58:03;;;;;;;10.10;5.85;;;16.00;99.90;;;;;;5079704;28;20040;-90
2023/09/06 05:00:33;;;;;;;8.63;5.47;;;16.00;99.90;;;;;;5112055;28;20143;-90
2023/09/06 05:03:02;;;;;;;7.40;5.78;;;16.00;99.90;;;;;;5095958;28;20047;-90
2023/09/06 05:05:29;;;;;;;7.47;5.65;;;16.00;99.90;;;;;;5079482;28;20491;-89
2023/09/06 05:07:56;;;;;;;8.88;5.82;;;16.00;99.90;;;;;;5081614;28;20110;-90
2023/09/06 05:10:23;;;;;;;9.63;6.45;;;16.00;99.90;;;;;;5090093;28;20048;-89
2023/09/06 05:12:49;;;;;;;9.35;6.28;;;16.00;99.90;;;;;;5077981;28;20055;-91
2023/09/06 05:15:16;;;;;;;7.10;5.00;;;16.00;99.90;;;;;;5078083;28;20044;-90
2023/09/06 05:17:43;;;;;;;6.95;5.25;;;16.00;99.90;;;;;;5078083;28;20047;-90
2023/09/06 05:20:35;;;;;;;9.43;6.05;;;15.90;99.90;;;;;;5078559;28;20488;-90
2023/09/06 05:23:12;;;;;;;8.35;6.15;;;15.90;99.90;;;;;;5111381;28;20047;-90
2023/09/06 05:25:40;;;;;;;7.78;5.63;;;15.90;99.90;;;;;;5094558;28;20044;-90
2023/09/06 05:28:09;;;;;;;9.30;5.90;;;15.90;99.90;;;;;;5077825;28;20051;-90
2023/09/06 05:30:40;;;;;;;8.52;6.63;;;15.90;99.90;;;;;;5080637;28;20042;-90
2023/09/06 05:33:07;;;;;;;10.85;6.07;;;15.90;99.90;;;;;;5080638;28;20074;-91
2023/09/06 05:35:34;;;;;;;8.38;5.55;;;16.00;99.90;;;;;;5111261;28;20557;-90
2023/09/06 05:38:04;;;;;;;20.17;6.38;;;16.00;99.90;;;;;;5077736;28;20036;-90
2023/09/06 05:40:33;;;;;;;9.80;6.00;;;16.00;99.90;;;;;;5094696;28;20503;-91
2023/09/06 05:42:59;;;;;;;7.60;5.47;;;16.00;99.90;;;;;;5110090;28;20121;-90
2023/09/06 05:45:26;;;;;;;9.95;5.78;;;16.00;99.90;;;;;;5078034;28;20036;-90
2023/09/06 05:47:53;;;;;;;8.15;5.95;;;16.00;99.90;;;;;;5077821;28;20032;-90
2023/09/06 05:50:20;;;;;;;9.23;5.93;;;16.10;99.90;;;;;;5078096;28;20132;-91
2023/09/06 05:52:47;;;;;;;8.73;5.80;;;16.00;99.90;;;;;;5077291;28;20036;-90
2023/09/06 05:55:14;;;;;;;8.18;5.45;;;16.10;99.90;;;;;;5094508;28;20365;-90
2023/09/06 05:57:42;;;;;;;8.05;5.60;;;16.10;99.90;;;;;;5077658;28;20101;-90
2023/09/06 06:00:12;;;;;;;9.70;5.88;;;16.20;99.90;;;;;;5110857;28;20501;-90
2023/09/06 06:02:39;;;;;;;8.82;5.88;;;16.20;99.90;;;;;;5078533;28;20032;-90
2023/09/06 06:05:06;;;;;;;9.07;5.68;;;16.30;99.90;;;;;;5077762;28;20044;-91
2023/09/06 06:07:33;;;;;;;8.82;6.13;;;16.30;99.90;;;;;;5073097;28;20074;-90
2023/09/06 06:10:00;;;;;;;8.75;5.47;;;16.40;99.90;;;;;;5079380;28;20531;-91
2023/09/06 06:12:27;;;;;;;9.20;5.80;;;16.30;99.90;;;;;;5061430;28;20097;-91
2023/09/06 06:14:53;;;;;;;11.45;5.53;;;16.40;99.90;;;;;;5061044;28;20059;-92
2023/09/06 06:17:20;;;;;;;11.32;6.68;;;16.50;99.90;;;;;;5061284;28;20036;-92
2023/09/06 06:19:48;;;;;;;9.65;5.85;;;16.50;99.90;;;;;;5093811;28;20040;-91
2023/09/06 06:22:15;;;;;;;9.50;5.93;;;16.60;99.90;;;;;;5103777;28;20036;-91
2023/09/06 06:24:44;;;;;;;9.82;5.68;;;16.70;99.90;;;;;;5107198;28;20136;-92
2023/09/06 06:27:11;;;;;;;8.07;5.72;;;16.70;99.90;;;;;;5100914;28;20044;-92
2023/09/06 06:29:38;;;;;;;9.95;5.50;;;16.90;99.90;;;;;;5084270;28;20100;-91
2023/09/06 06:32:05;;;;;;;10.93;6.00;;;17.00;99.90;;;;;;5088326;28;20502;-91
2023/09/06 06:34:32;;;;;;;7.55;5.63;;;17.00;99.90;;;;;;5102978;28;20483;-91
2023/09/06 06:36:59;;;;;;;10.77;6.05;;;17.10;99.90;;;;;;5076708;28;20047;-91
2023/09/06 06:39:26;;;;;;;10.82;5.85;;;17.10;99.90;;;;;;5093714;28;20036;-91
2023/09/06 06:41:52;;;;;;;8.85;5.50;;;17.20;99.90;;;;;;5093361;28;20040;-91
2023/09/06 06:44:19;;;;;;;10.15;5.60;;;17.30;99.90;;;;;;5077278;28;20046;-90
2023/09/06 06:46:46;;;;;;;10.30;5.15;;;17.40;99.90;;;;;;5077168;28;20051;-91
2023/09/06 06:49:13;;;;;;;11.98;5.22;;;17.40;99.90;;;;;;5060934;28;20431;-89
2023/09/06 06:51:40;;;;;;;7.35;5.30;;;17.60;99.90;;;;;;5077270;28;20369;-89
2023/09/06 06:54:14;;;;;;;12.35;5.80;;;17.60;99.90;;;;;;5108866;28;20036;-85
2023/09/06 06:56:41;;;;;;;10.70;5.60;;;17.80;99.90;;;;;;5101515;28;20039;-88
2023/09/06 06:59:08;;;;;;;8.68;4.88;;;17.90;99.90;;;;;;5117556;28;20084;-88
2023/09/06 07:01:36;;;;;;;8.27;4.47;;;18.00;99.90;;;;;;5118121;28;20054;-88
2023/09/06 07:04:05;;;;;;;8.27;4.78;;;18.10;99.90;;;;;;5117242;28;20047;-88
2023/09/06 07:06:32;;;;;;;8.52;4.63;;;18.20;99.90;;;;;;5084853;28;20042;-88
2023/09/06 07:09:03;;;;;;;8.73;5.22;;;18.30;99.90;;;;;;5100022;28;20138;-88
2023/09/06 07:11:31;;;;;;;10.25;4.50;;;18.50;99.90;;;;;;5101527;28;20109;-89
2023/09/06 07:13:58;;;;;;;7.47;4.53;;;18.60;99.90;;;;;;5100590;28;20031;-88
2023/09/06 07:16:24;;;;;;;9.60;4.22;;;18.70;99.90;;;;;;5117467;28;20046;-88
2023/09/06 07:18:51;;;;;;;9.57;4.10;;;18.90;99.90;;;;;;5097387;28;20082;-86
2023/09/06 07:21:20;;;;;;;10.90;4.30;;;19.00;99.90;;;;;;5079135;28;20130;-87
2023/09/06 07:23:47;;;;;;;9.52;4.03;;;19.10;99.90;;;;;;5112322;28;20046;-86
2023/09/06 07:26:14;;;;;;;7.00;3.75;;;19.30;99.90;;;;;;5090173;28;20043;-86
2023/09/06 07:28:46;;;;;;;8.18;4.10;;;19.40;99.90;;;;;;5079606;28;20044;-86
2023/09/06 07:31:14;;;;;;;7.15;3.72;;;19.50;99.90;;;;;;5095481;28;20108;-86
2023/09/06 07:33:41;;;;;;;7.15;3.70;;;19.70;99.90;;;;;;5079024;28;20551;-86
2023/09/06 07:36:08;;;;;;;4.88;3.15;;;19.80;99.90;;;;;;5095342;28;20626;-86
2023/09/06 07:38:34;;;;;;;6.07;3.50;;;19.90;99.90;;;;;;5078993;28;20040;-86
2023/09/06 07:41:04;;;;;;;7.88;3.33;;;20.10;99.90;;;;;;5078807;28;20420;-86
2023/09/06 07:43:32;;;;;;;5.07;3.20;;;20.20;99.90;;;;;;5095560;28;20063;-86
2023/09/06 07:46:00;;;;;;;5.97;3.38;;;20.30;99.90;;;;;;5078417;28;20075;-85
2023/09/06 07:48:29;;;;;;;6.55;3.03;;;20.50;99.90;;;;;;5106433;28;20043;-85
2023/09/06 07:50:59;;;;;;;6.13;3.20;;;20.60;99.90;;;;;;5098958;28;20446;-86
2023/09/06 07:53:26;;;;;;;5.57;3.03;;;20.80;99.90;;;;;;5115749;28;20126;-86
2023/09/06 07:55:55;;;;;;;6.82;3.38;;;21.00;99.90;;;;;;5099316;28;20079;-86
2023/09/06 07:58:22;;;;;;;4.93;2.78;;;21.20;99.90;;;;;;5099060;28;20043;-86
2023/09/06 08:00:50;;;;;;;6.15;3.00;;;21.30;99.90;;;;;;5098382;28;20081;-87
2023/09/06 08:03:17;;;;;;;4.82;2.75;;;21.50;99.90;;;;;;5131881;28;20403;-85
2023/09/06 08:05:46;;;;;;;4.88;2.65;;;21.60;99.90;;;;;;5114383;28;20407;-85
2023/09/06 08:08:12;;;;;;;4.00;2.53;;;21.80;99.90;;;;;;5098880;28;20125;-86
2023/09/06 08:10:39;;;;;;;5.63;2.70;;;21.90;99.90;;;;;;5082170;28;20147;-88
2023/09/06 08:13:06;;;;;;;5.00;2.75;;;22.00;99.90;;;;;;5098485;28;20604;-87
2023/09/06 08:15:35;;;;;;;6.20;2.70;;;22.20;99.90;;;;;;5115484;28;20063;-89
2023/09/06 08:18:03;;;;;;;5.60;2.72;;;22.40;99.90;;;;;;5065649;28;20067;-85
2023/09/06 08:20:31;;;;;;;7.80;2.42;;;22.60;99.90;;;;;;5078757;28;20044;-86
2023/09/06 08:22:58;;;;;;;4.10;1.90;;;22.80;99.90;;;;;;5090931;28;20036;-86
2023/09/06 08:25:25;;;;;;;3.50;2.05;;;22.80;99.90;;;;;;5087453;28;20487;-87
2023/09/06 08:27:51;;;;;;;5.18;1.85;;;22.90;99.90;;;;;;5089490;28;20097;-87
2023/09/06 08:30:20;;;;;;;5.25;1.85;;;23.10;99.90;;;;;;5097842;28;20035;-86
2023/09/06 08:32:49;;;;;;;4.00;1.70;;;23.20;99.90;;;;;;5098107;28;20044;-86
2023/09/06 08:35:17;;;;;;;3.33;1.90;;;23.20;99.90;;;;;;5103596;28;20032;-86
2023/09/06 08:37:47;;;;;;;3.00;1.67;;;23.30;99.90;;;;;;5061681;28;20480;-86
2023/09/06 08:40:15;;;;;;;2.47;1.50;;;23.40;99.90;;;;;;5094234;28;20040;-85
2023/09/06 08:42:44;;;;;;;3.50;1.85;;;23.50;99.90;;;;;;5066201;28;20082;-87
2023/09/06 08:45:11;;;;;;;5.47;2.17;;;23.60;99.90;;;;;;5114339;28;20040;-88
2023/09/06 08:47:42;;;;;;;2.55;1.60;;;23.70;99.90;;;;;;5101092;28;20515;-87
2023/09/06 08:50:10;;;;;;;3.80;1.70;;;23.80;99.90;;;;;;5078006;28;20131;-86
2023/09/06 08:52:41;;;;;;;4.13;1.90;;;23.90;99.90;;;;;;5061584;28;20617;-88
2023/09/06 08:55:12;;;;;;;4.55;1.67;;;24.00;99.90;;;;;;5094230;28;20038;-86
2023/09/06 08:57:40;;;;;;;5.15;1.88;;;24.10;99.90;;;;;;5094254;28;20048;-86
2023/09/06 09:00:09;;;;;;;2.95;1.90;;;24.30;99.90;;;;;;5077243;28;20500;-87
2023/09/06 09:02:46;;;;;;;3.97;2.05;;;24.40;99.90;;;;;;5094864;28;20040;-87
2023/09/06 09:05:14;;;;;;;4.15;1.95;;;24.50;99.90;;;;;;5110485;28;20075;-88
2023/09/06 09:07:41;;;;;;;3.30;1.60;;;24.60;99.90;;;;;;5077660;28;20050;-86
2023/09/06 09:10:13;;;;;;;4.32;1.90;;;24.70;99.90;;;;;;5060353;28;20131;-85
2023/09/06 09:12:40;;;;;;;3.88;1.58;;;24.90;99.90;;;;;;5107093;28;20131;-85
2023/09/06 09:15:08;;;;;;;5.60;1.92;;;24.90;99.90;;;;;;5110885;28;20118;-85
2023/09/06 09:17:38;;;;;;;3.97;1.70;;;25.10;99.90;;;;;;5078727;28;20515;-85
2023/09/06 09:20:05;;;;;;;7.13;2.00;;;25.10;99.90;;;;;;5088831;28;20043;-88
2023/09/06 09:22:35;;;;;;;4.50;1.92;;;25.20;99.90;;;;;;5078373;28;20040;-88
2023/09/06 09:25:16;;;;;;;3.80;1.90;;;25.30;99.90;;;;;;5101020;28;20040;-88
2023/09/06 09:27:47;;;;;;;4.90;1.80;;;25.40;99.90;;;;;;5095499;28;20048;-89
2023/09/06 09:30:14;;;;;;;2.92;1.73;;;25.50;99.90;;;;;;5091537;28;20043;-89
2023/09/06 09:32:42;;;;;;;4.38;1.98;;;25.50;99.90;;;;;;5097726;28;20836;-89
2023/09/06 09:35:13;;;;;;;3.40;1.80;;;25.60;99.90;;;;;;5130861;28;20050;-89
2023/09/06 09:37:42;;;;;;;3.35;1.70;;;25.70;99.90;;;;;;5082393;28;20047;-89
2023/09/06 09:40:20;;;;;;;4.72;1.90;;;25.80;99.90;;;;;;5097873;28;20039;-88
2023/09/06 09:42:57;;;;;;;3.45;1.77;;;25.90;99.90;;;;;;5081787;28;20054;-89
2023/09/06 09:45:25;;;;;;;5.97;1.88;;;26.10;99.90;;;;;;5114072;28;20038;-90
2023/09/06 09:47:52;;;;;;;3.00;1.60;;;26.20;99.90;;;;;;5097755;28;20086;-89
2023/09/06 09:50:22;;;;;;;3.85;1.60;;;26.30;99.90;;;;;;5097428;28;20451;-89
2023/09/06 09:52:49;;;;;;;5.38;1.88;;;26.40;99.90;;;;;;5097440;28;20474;-89
2023/09/06 09:55:20;;;;;;;4.85;1.70;;;26.40;99.90;;;;;;5097227;28;20039;-89
2023/09/06 09:57:46;;;;;;;4.60;1.80;;;26.50;99.90;;;;;;5113710;28;20081;-90
2023/09/06 10:00:14;;;;;;;4.32;1.70;;;26.60;99.90;;;;;;5094576;28;20826;-89
2023/09/06 10:02:45;;;;;;;5.32;1.83;;;26.70;99.90;;;;;;5110735;28;20097;-89
2023/09/06 10:05:16;;;;;;;6.03;1.73;;;26.80;99.90;;;;;;5109905;28;20039;-88
2023/09/06 10:07:43;;;;;;;4.47;1.60;;;26.90;99.90;;;;;;5093854;28;20511;-90
2023/09/06 10:10:11;;;;;;;4.15;1.92;;;27.00;99.90;;;;;;5060855;28;20044;-88
2023/09/06 10:12:45;;;;;;;2.42;1.50;;;27.00;99.90;;;;;;5093677;28;20128;-89
2023/09/06 10:15:13;;;;;;;2.88;1.60;;;27.10;99.90;;;;;;5093005;28;20496;-86
2023/09/06 10:17:44;;;;;;;3.45;1.58;;;27.10;99.90;;;;;;5093033;28;20044;-87
2023/09/06 10:20:22;;;;;;;4.47;1.63;;;27.20;99.90;;;;;;5076801;28;20051;-89
2023/09/06 10:22:55;;;;;;;4.80;1.80;;;27.30;99.90;;;;;;5077255;28;20051;-95
2023/09/06 10:25:25;;;;;;;3.63;1.73;;;27.40;99.90;;;;;;5114519;28;20047;-96
2023/09/06 10:27:54;;;;;;;3.17;1.63;;;27.60;99.90;;;;;;5131164;28;20036;-91
2023/09/06 10:30:28;;;;;;;5.78;1.80;;;27.70;99.90;;;;;;5114221;28;20145;-96
2023/09/06 10:32:55;;;;;;;2.95;1.70;;;27.80;99.90;;;;;;5114314;28;20126;-94
2023/09/06 10:35:30;;;;;;;2.70;1.50;;;27.80;99.90;;;;;;5114117;28;20476;-94
2023/09/06 10:38:18;;;;;;;2.90;1.60;;;27.90;99.90;;;;;;5108816;28;20376;-91
2023/09/06 10:40:49;;;;;;;3.75;1.60;;;28.00;99.90;;;;;;5108880;28;20043;-93
2023/09/06 10:43:23;;;;;;;4.80;1.77;;;28.00;99.90;;;;;;5098587;28;20051;-92
2023/09/06 10:45:58;;;;;;;4.80;1.75;;;28.10;99.90;;;;;;5108419;28;20040;-92
2023/09/06 10:48:25;;;;;;;4.03;1.60;;;28.20;99.90;;;;;;5083887;28;20032;-92
2023/09/06 10:51:03;;;;;;;3.67;1.80;;;28.20;99.90;;;;;;5079357;28;20427;-90
2023/09/06 10:53:30;;;;;;;3.50;1.48;;;28.40;99.90;;;;;;5095344;28;20109;-91
2023/09/06 10:55:59;;;;;;;2.80;1.38;;;28.40;99.90;;;;;;5095787;28;20130;-89
2023/09/06 10:58:29;;;;;;;5.03;1.63;;;28.50;99.90;;;;;;5082766;28;20036;-90
2023/09/06 11:01:33;;;;;;;2.88;1.40;;;28.50;99.90;;;;;;5083765;28;20132;-94
2023/09/06 11:04:53;;;;;;;3.85;1.77;;;28.50;99.90;;;;;;5109250;28;20031;-96
2023/09/06 11:08:06;;;;;;;2.60;1.40;;;28.60;99.90;;;;;;5160064;28;20047;-96
2023/09/06 11:10:43;;;;;;;5.05;1.83;;;28.60;99.90;;;;;;5111415;28;20053;-96
2023/09/06 11:13:38;;;;;;;4.68;1.70;;;28.70;99.90;;;;;;5106820;28;20039;-96
2023/09/06 11:16:21;;;;;;;5.05;1.63;;;28.80;99.90;;;;;;5081627;28;20040;-96
2023/09/06 11:18:50;;;;;;;2.63;1.40;;;28.80;99.90;;;;;;5091179;28;20048;-96
2023/09/06 11:21:23;;;;;;;3.97;1.50;;;29.00;99.90;;;;;;5085738;28;20070;-94
2023/09/06 11:23:54;;;;;;;3.47;1.60;;;28.90;99.90;;;;;;5076123;28;20044;-96
2023/09/06 11:26:44;;;;;;;4.50;1.45;;;29.00;99.90;;;;;;5078389;28;20050;-96
2023/09/06 11:29:14;;;;;;;2.70;1.52;;;29.00;99.90;;;;;;5070898;28;20048;-96
2023/09/06 11:31:42;;;;;;;3.33;1.85;;;29.10;99.90;;;;;;5057110;28;20036;-96
2023/09/06 11:34:13;;;;;;;2.70;1.48;;;29.10;99.90;;;;;;5081305;28;20042;-96
2023/09/06 11:36:43;;;;;;;2.75;1.60;;;29.20;99.90;;;;;;5074396;28;20040;-96
2023/09/06 11:39:15;;;;;;;2.65;1.50;;;29.20;99.90;;;;;;5110815;28;20040;-96
2023/09/06 11:41:44;;;;;;;2.70;1.48;;;29.20;99.90;;;;;;5096341;28;20043;-96
2023/09/06 11:44:14;;;;;;;2.92;1.40;;;29.20;99.90;;;;;;5086727;28;20043;-96
2023/09/06 11:46:43;;;;;;;3.72;1.80;;;29.20;99.90;;;;;;5097206;28;20040;-96
2023/09/06 11:49:18;;;;;;;3.92;1.55;;;29.30;99.90;;;;;;5096219;28;20089;-96
2023/09/06 11:51:46;;;;;;;4.78;1.55;;;29.40;99.90;;;;;;5099198;28;20507;-96
2023/09/06 11:54:31;;;;;;;2.53;1.40;;;29.40;99.90;;;;;;5100066;28;20130;-96
2023/09/06 11:57:04;;;;;;;3.45;1.30;;;29.40;99.90;;;;;;5083137;28;20039;-96
2023/09/06 11:59:32;;;;;;;4.18;1.50;;;29.40;99.90;;;;;;5082442;28;20078;-96
2023/09/06 12:02:00;;;;;;;5.00;1.50;;;29.50;99.90;;;;;;5081954;28;20044;-96
2023/09/06 12:04:32;;;;;;;4.22;1.63;;;29.50;99.90;;;;;;5081914;28;20051;-93
2023/09/06 12:07:07;;;;;;;5.47;1.52;;;29.60;99.90;;;;;;5097606;28;20032;-96
2023/09/06 12:09:38;;;;;;;3.10;1.50;;;29.70;99.90;;;;;;5098749;28;20036;-96
2023/09/06 12:12:09;;;;;;;5.35;1.60;;;29.70;99.90;;;;;;5101461;28;20051;-96
2023/09/06 12:14:36;;;;;;;2.90;1.77;;;29.70;99.90;;;;;;5093984;28;20040;-96
2023/09/06 12:17:06;;;;;;;8.40;1.60;;;29.70;99.90;;;;;;5095238;28;20040;-96
2023/09/06 12:19:33;;;;;;;4.35;1.60;;;29.80;99.90;;;;;;5090005;28;20411;-91
2023/09/06 12:22:01;;;;;;;5.05;1.52;;;29.90;99.90;;;;;;5126101;28;20390;-93
2023/09/06 12:24:27;;;;;;;2.65;1.30;;;29.80;99.90;;;;;;5109332;28;20060;-93
2023/09/06 12:26:54;;;;;;;6.30;1.50;;;29.90;99.90;;;;;;5087191;28;20044;-90
2023/09/06 12:29:21;;;;;;;2.38;1.40;;;29.90;99.90;;;;;;5070140;28;20036;-90
2023/09/06 12:31:49;;;;;;;3.33;1.60;;;29.90;99.90;;;;;;5095395;28;20043;-89
2023/09/06 12:34:16;;;;;;;2.53;1.27;;;29.90;99.90;;;;;;5079054;28;20396;-88
2023/09/06 12:36:43;;;;;;;3.55;1.67;;;29.90;99.90;;;;;;5078139;28;20047;-89
2023/09/06 12:39:11;;;;;;;3.40;1.50;;;29.90;99.90;;;;;;5078773;28;20039;-93
2023/09/06 12:41:38;;;;;;;3.42;1.58;;;29.90;99.90;;;;;;5095439;28;20480;-93
2023/09/06 12:44:59;;;;;;;7.13;1.42;;;29.90;99.90;;;;;;5087437;28;20043;-92
2023/09/06 12:47:51;;;;;;;5.65;1.73;;;29.80;99.90;;;;;;5128253;28;20044;-92
2023/09/06 12:50:19;;;;;;;4.25;1.50;;;29.90;99.90;;;;;;5103774;28;20861;-92
2023/09/06 12:52:52;;;;;;;7.15;1.73;;;29.90;99.90;;;;;;5102474;28;20032;-92
2023/09/06 12:55:19;;;;;;;3.85;1.40;;;29.90;99.90;;;;;;5112086;28;20040;-90
2023/09/06 12:57:46;;;;;;;3.53;1.30;;;29.80;99.90;;;;;;5100014;28;20055;-89
2023/09/06 13:00:14;;;;;;;2.53;1.38;;;29.90;99.90;;;;;;5095295;28;20492;-90